Impacts METAR Board
IDs:

KJFK - New York/Kennedy Int, NY, US

Updated at: 2000 UTC 16 Aug 2018
Potential Impact None Slight Moderate High
Time 16/08Z 16/09Z 16/10Z 16/11Z 16/12Z 16/13Z 16/14Z 16/15Z 16/16Z 16/17Z 16/18Z 16/19Z 16/20Z
Temp78 76 75 77 80 82 84 87 88 88 88 88 88
Dewpt72 72 71 72 70 68 70 70 69 71 70 71 70
Altim29.99 30.01 30.02 30.04 30.05 30.06 30.06 30.07 30.07 30.06 30.06 30.05 30.04
VIS10 10 10 10 10 10 10 10 10 10 10 10 10
CIG-- -- -- 250 240 -- 230 260 -- -- -- -- --
CoverSCTSCTSCTBKNBKNSCTBKNBKNSCTSCTFEWFEWFEW
FltCatVFRVFRVFRVFRVFRVFRVFRVFRVFRVFRVFRVFRVFR
WX--------------------------
WDir270270270280310310320310290230230240210
WSpd7 6 5 5 8 10 9 7 6 10 12 12 12
WGst-- -- -- -- -- -- -- -- -- -- -- -- --
Raw hourly METARs
KJFK 160751Z 27007KT 10SM SCT250 26/22 A2999 RMK AO2 SLP157 T02560222
KJFK 160851Z 27006KT 10SM SCT250 24/22 A3001 RMK AO2 SLP161 T02440222 53005
KJFK 160951Z 27005KT 10SM SCT250 24/22 A3002 RMK AO2 SLP165 T02390217
KJFK 161051Z 28005KT 10SM BKN250 25/22 A3004 RMK AO2 SLP172 T02500222
KJFK 161151Z 31008KT 10SM BKN240 27/21 A3005 RMK AO2 SLP176 T02670211 10267 20233 51015
KJFK 161251Z 31010KT 10SM SCT240 28/20 A3006 RMK AO2 SLP180 T02780200
KJFK 161351Z 32009KT 10SM BKN230 29/21 A3006 RMK AO2 SLP180 T02890211
KJFK 161451Z 31007KT 10SM SCT220 BKN260 31/21 A3007 RMK AO2 SLP182 T03060211 51006
KJFK 161551Z 29006KT 10SM SCT260 31/21 A3007 RMK AO2 SLP182 T03110206
KJFK 161651Z 23010KT 10SM FEW050 SCT250 31/22 A3006 RMK AO2 SLP179 T03110217
KJFK 161751Z 23012KT 10SM FEW050 FEW250 31/21 A3006 RMK AO2 SLP178 T03110211 10317 20267 58004
KJFK 161851Z 24012KT 10SM FEW050 FEW250 31/22 A3005 RMK AO2 SLP177 T03110217
KJFK 161951Z 21012KT 10SM FEW060 FEW250 31/21 A3004 RMK AO2 SLP173 T03110211



Page loaded:  20:18 UTC  |   01:18 PM Pacific  |   02:18 PM Mountain  |   03:18 PM Central  |   04:18 PM Eastern

 

ADVISORIES

FORECASTS

FORECASTS

OBSERVATIONS

USER TOOLS

ABOUT US